Sveva — IBEU — position and weather

sailwx.info

Track history (hours):
 
Tides and Currents Weather Stations Pressure Air Temp Water Temp Dewpoint Dewpoint Depression Visibility Wind Speed Wind Dir Waves Ship Positions

Sveva

Last reported at 2015-Jul-31 21:25 UTC. Time now 2015-Aug-01 11:49 UTC.
Position N 36°44' E 005°11'.

Length 136 m; draft 7.7 m.

Type: Tanker. MMSI: 247359000.

Date/timePositionNaut miles runAvg speedWind from/ knotsBaromVisibWave heightAir tempDewpointWater temp
2015-Jul-31 21:25N 36°44' E 005°11'0 0.0
2015-Jul-31 20:31N 36°44' E 005°11'203 6.3
2015-Jul-30 12:13N 36°43' E 000°57'912.6
2015-Jul-30 11:28N 36°41' E 000°46'7811.2
2015-Jul-30 04:30N 36°18' W 000°46'1110.2
2015-Jul-30 03:24N 36°15' W 000°60'2110.0
2015-Jul-30 01:19N 36°09' W 001°25'221 9.5
2015-Jul-29 02:07N 35°55' W 005°57'810.8
2015-Jul-29 01:25N 35°55' W 006°07'910.1
2015-Jul-29 00:33N 35°54' W 006°17'1110.0
2015-Jul-28 23:25N 35°53' W 006°31'10 9.2
2015-Jul-28 22:21N 35°52' W 006°44'16 8.8
2015-Jul-28 20:30N 35°38' W 006°55'10 9.8
2015-Jul-28 19:26N 35°30' W 007°02'8 9.3
2015-Jul-28 18:33N 35°23' W 007°07'9 9.0
2015-Jul-28 17:33N 35°15' W 007°12'9 9.1
2015-Jul-28 16:33N 35°07' W 007°18'13 9.2
2015-Jul-28 15:08N 34°55' W 007°25'6 9.5
2015-Jul-28 14:33N 34°51' W 007°30'13 9.4
2015-Jul-28 13:11N 34°43' W 007°42'5 8.4
2015-Jul-28 12:33N 34°37' W 007°41'10 9.8
2015-Jul-28 11:30N 34°27' W 007°42'1111.3
2015-Jul-28 10:33N 34°18' W 007°37'1211.3
2015-Jul-28 09:32N 34°07' W 007°31'  
2015-Jul-22 20:32N 33°38' W 007°35'0 0.0
2015-Jul-22 19:32N 33°38' W 007°35'0 0.0
2015-Jul-22 18:32N 33°38' W 007°35'  
Track history (hours):
 
Tides and Currents Weather Stations Pressure Air Temp Water Temp Dewpoint Dewpoint Depression Visibility Wind Speed Wind Dir Waves Ship Positions

Sveva

Last reported at 2015-Jul-31 21:25 UTC. Time now 2015-Aug-01 11:49 UTC.
Position N 36°44' E 005°11'.

Length 136 m; draft 7.7 m.

Type: Tanker. MMSI: 247359000.

Date/timePositionNaut miles runAvg speedWind from/ knotsBaromVisibWave heightAir tempDewpointWater temp
2015-Jul-31 21:25N 36°44' E 005°11'0 0.0
2015-Jul-31 20:31N 36°44' E 005°11'203 6.3
2015-Jul-30 12:13N 36°43' E 000°57'912.6
2015-Jul-30 11:28N 36°41' E 000°46'7811.2
2015-Jul-30 04:30N 36°18' W 000°46'1110.2
2015-Jul-30 03:24N 36°15' W 000°60'2110.0
2015-Jul-30 01:19N 36°09' W 001°25'221 9.5
2015-Jul-29 02:07N 35°55' W 005°57'810.8
2015-Jul-29 01:25N 35°55' W 006°07'910.1
2015-Jul-29 00:33N 35°54' W 006°17'1110.0
2015-Jul-28 23:25N 35°53' W 006°31'10 9.2
2015-Jul-28 22:21N 35°52' W 006°44'16 8.8
2015-Jul-28 20:30N 35°38' W 006°55'10 9.8
2015-Jul-28 19:26N 35°30' W 007°02'8 9.3
2015-Jul-28 18:33N 35°23' W 007°07'9 9.0
2015-Jul-28 17:33N 35°15' W 007°12'9 9.1
2015-Jul-28 16:33N 35°07' W 007°18'13 9.2
2015-Jul-28 15:08N 34°55' W 007°25'6 9.5
2015-Jul-28 14:33N 34°51' W 007°30'13 9.4
2015-Jul-28 13:11N 34°43' W 007°42'5 8.4
2015-Jul-28 12:33N 34°37' W 007°41'10 9.8
2015-Jul-28 11:30N 34°27' W 007°42'1111.3
2015-Jul-28 10:33N 34°18' W 007°37'1211.3
2015-Jul-28 09:32N 34°07' W 007°31'  
2015-Jul-22 20:32N 33°38' W 007°35'0 0.0
2015-Jul-22 19:32N 33°38' W 007°35'0 0.0
2015-Jul-22 18:32N 33°38' W 007°35'  

Dump ship's entire track history